Time;durP1;ratioP1;P1;durP2;ratioP2;P2;SDS_P1;SDS_P2;PMS_P1;PMS_P2;Temp;Humidity;BMP_temperature;BMP_pressure;BME280_temperature;BME280_humidity;BME280_pressure;Samples;Min_cycle;Max_cycle;Signal;HPM_P1;HPM_P2
2023/04/16 00:00:12;;;;;;;19.58;11.95;;;;;;;;;;5075423;28;20248;-80
2023/04/16 00:02:38;;;;;;;18.70;13.20;;;;;;;;;;5041624;28;20185;-80
2023/04/16 00:05:05;;;;;;;26.00;13.93;;;;;;;;;;5041916;28;20276;-80
2023/04/16 00:07:31;;;;;;;22.98;12.50;;;;;;;;;;5058337;28;20200;-81
2023/04/16 00:09:57;;;;;;;21.25;12.70;;;;;;;;;;5040614;28;20177;-81
2023/04/16 00:12:23;;;;;;;20.17;12.48;;;;;;;;;;5041520;28;20586;-80
2023/04/16 00:14:49;;;;;;;21.30;11.07;;;;;;;;;;5057487;28;20212;-81
2023/04/16 00:17:15;;;;;;;18.73;12.13;;;;;;;;;;5075620;28;20181;-81
2023/04/16 00:19:41;;;;;;;24.25;12.80;;;;;;;;;;5076077;28;20177;-80
2023/04/16 00:22:07;;;;;;;17.13;12.35;;;;;;;;;;5058382;28;20264;-80
2023/04/16 00:24:33;;;;;;;18.85;10.93;;;;;;;;;;5058266;28;20192;-81
2023/04/16 00:27:00;;;;;;;18.73;11.65;;;;;;;;;;5057407;28;20191;-80
2023/04/16 00:29:27;;;;;;;25.48;13.23;;;;;;;;;;5075128;28;20177;-80
2023/04/16 00:31:53;;;;;;;23.02;12.77;;;;;;;;;;5075450;28;20184;-81
2023/04/16 00:34:19;;;;;;;21.17;12.05;;;;;;;;;;5057709;28;20259;-80
2023/04/16 00:36:45;;;;;;;18.40;11.82;;;;;;;;;;5041117;28;20582;-80
2023/04/16 00:39:11;;;;;;;20.25;11.65;;;;;;;;;;5041391;28;20181;-80
2023/04/16 00:41:38;;;;;;;19.63;12.43;;;;;;;;;;5057060;28;20189;-80
2023/04/16 00:44:04;;;;;;;19.65;11.88;;;;;;;;;;5057461;28;20180;-81
2023/04/16 00:46:31;;;;;;;21.05;12.98;;;;;;;;;;5040569;28;20177;-80
2023/04/16 00:49:00;;;;;;;19.08;11.23;;;;;;;;;;5040841;28;20533;-79
2023/04/16 00:51:26;;;;;;;18.05;12.85;;;;;;;;;;5058110;28;20605;-80
2023/04/16 00:53:52;;;;;;;25.58;14.15;;;;;;;;;;5057281;28;20219;-80
2023/04/16 00:56:19;;;;;;;22.23;12.07;;;;;;;;;;5040477;28;20181;-80
2023/04/16 00:58:45;;;;;;;24.38;14.55;;;;;;;;;;5074951;28;20256;-81
2023/04/16 01:01:12;;;;;;;21.30;12.20;;;;;;;;;;5057171;28;20539;-80
2023/04/16 01:03:40;;;;;;;17.05;11.93;;;;;;;;;;5057266;28;20243;-80
2023/04/16 01:06:06;;;;;;;20.50;13.57;;;;;;;;;;5058073;28;20575;-80
2023/04/16 01:08:33;;;;;;;26.75;12.73;;;;;;;;;;5057508;28;20211;-80
2023/04/16 01:10:59;;;;;;;26.88;14.27;;;;;;;;;;5057538;28;20200;-80
2023/04/16 01:13:25;;;;;;;22.55;13.32;;;;;;;;;;5057275;28;20209;-80
2023/04/16 01:15:51;;;;;;;20.30;13.25;;;;;;;;;;5040142;28;20581;-80
2023/04/16 01:18:18;;;;;;;20.70;12.77;;;;;;;;;;5057004;28;20188;-80
2023/04/16 01:20:44;;;;;;;22.20;15.00;;;;;;;;;;5056649;28;20172;-81
2023/04/16 01:23:10;;;;;;;27.42;12.57;;;;;;;;;;5040797;28;20272;-80
2023/04/16 01:25:36;;;;;;;30.92;14.55;;;;;;;;;;5040121;28;20204;-80
2023/04/16 01:28:03;;;;;;;25.25;13.02;;;;;;;;;;5056628;28;20640;-81
2023/04/16 01:30:29;;;;;;;20.17;12.77;;;;;;;;;;5040746;28;20542;-81
2023/04/16 01:32:56;;;;;;;18.10;12.90;;;;;;;;;;5056837;28;20339;-79
2023/04/16 01:35:22;;;;;;;17.77;11.00;;;;;;;;;;5056488;28;20177;-80
2023/04/16 01:37:49;;;;;;;24.05;11.70;;;;;;;;;;5056428;28;20181;-79
2023/04/16 01:40:15;;;;;;;14.80;8.40;;;;;;;;;;5056392;28;20283;-80
2023/04/16 01:42:41;;;;;;;21.52;13.27;;;;;;;;;;5040038;28;20529;-79
2023/04/16 01:45:07;;;;;;;18.65;11.30;;;;;;;;;;5057136;28;20177;-79
2023/04/16 01:47:33;;;;;;;23.30;12.07;;;;;;;;;;5040165;28;20208;-79
2023/04/16 01:50:00;;;;;;;16.93;11.03;;;;;;;;;;5056042;28;20255;-79
2023/04/16 01:52:26;;;;;;;23.70;13.02;;;;;;;;;;5057003;28;20483;-79
2023/04/16 01:54:52;;;;;;;17.75;12.18;;;;;;;;;;5074061;28;20283;-79
2023/04/16 01:57:18;;;;;;;26.90;13.00;;;;;;;;;;5057273;28;20267;-79
2023/04/16 01:59:44;;;;;;;22.77;12.73;;;;;;;;;;5039700;28;20403;-79
2023/04/16 02:02:11;;;;;;;21.38;12.95;;;;;;;;;;5040718;28;20466;-79
2023/04/16 02:04:37;;;;;;;17.45;11.70;;;;;;;;;;5056560;28;20682;-78
2023/04/16 02:07:04;;;;;;;25.42;13.00;;;;;;;;;;5056627;28;20192;-78
2023/04/16 02:09:30;;;;;;;23.58;13.55;;;;;;;;;;5040071;28;20188;-79
2023/04/16 02:11:56;;;;;;;24.90;13.93;;;;;;;;;;5056209;28;20192;-79
2023/04/16 02:14:24;;;;;;;28.90;12.77;;;;;;;;;;5057029;28;20212;-78
2023/04/16 02:16:50;;;;;;;31.52;14.85;;;;;;;;;;5056491;28;20977;-79
2023/04/16 02:19:16;;;;;;;27.10;14.65;;;;;;;;;;5056413;28;20177;-80
2023/04/16 02:21:42;;;;;;;22.67;12.85;;;;;;;;;;5074529;28;20575;-81
2023/04/16 02:24:08;;;;;;;23.50;13.87;;;;;;;;;;5074278;28;20227;-80
2023/04/16 02:26:34;;;;;;;20.52;14.48;;;;;;;;;;5039804;28;20407;-80
2023/04/16 02:29:00;;;;;;;24.02;13.95;;;;;;;;;;5039800;28;20272;-80
2023/04/16 02:31:27;;;;;;;27.88;16.85;;;;;;;;;;5057312;28;20531;-80
2023/04/16 02:33:53;;;;;;;30.73;16.13;;;;;;;;;;5059665;28;20259;-80
2023/04/16 02:36:19;;;;;;;30.73;17.75;;;;;;;;;;5059532;28;20625;-80
2023/04/16 02:38:45;;;;;;;24.60;15.32;;;;;;;;;;5060005;28;20184;-80
2023/04/16 02:41:11;;;;;;;24.30;16.23;;;;;;;;;;5043504;28;20279;-80
2023/04/16 02:43:37;;;;;;;30.95;15.77;;;;;;;;;;5043368;28;20181;-80
2023/04/16 02:46:03;;;;;;;21.10;12.80;;;;;;;;;;5042965;28;20191;-80
2023/04/16 02:48:30;;;;;;;25.50;14.20;;;;;;;;;;5043231;28;20419;-80
2023/04/16 02:50:55;;;;;;;29.10;17.40;;;;;;;;;;5042502;28;20240;-80
2023/04/16 02:53:21;;;;;;;23.93;15.97;;;;;;;;;;5059861;28;20252;-79
2023/04/16 02:55:51;;;;;;;27.50;18.50;;;;;;;;;;5059729;28;20777;-80
2023/04/16 02:58:18;;;;;;;25.13;17.05;;;;;;;;;;5077559;28;20405;-80
2023/04/16 03:00:44;;;;;;;30.65;16.80;;;;;;;;;;5077759;28;20172;-83
2023/04/16 03:03:11;;;;;;;24.50;14.05;;;;;;;;;;5059075;28;20195;-80
2023/04/16 03:05:37;;;;;;;29.20;16.75;;;;;;;;;;5059430;28;20675;-80
2023/04/16 03:08:03;;;;;;;24.00;16.90;;;;;;;;;;5059638;28;20189;-80
2023/04/16 03:10:29;;;;;;;26.38;16.52;;;;;;;;;;5059537;28;20437;-80
2023/04/16 03:12:55;;;;;;;26.92;16.58;;;;;;;;;;5042283;28;20222;-80
2023/04/16 03:15:22;;;;;;;33.95;18.92;;;;;;;;;;5059807;28;20189;-79
2023/04/16 03:17:47;;;;;;;32.63;19.25;;;;;;;;;;5077307;28;20164;-80
2023/04/16 03:20:15;;;;;;;34.13;20.40;;;;;;;;;;5042958;28;20207;-80
2023/04/16 03:22:41;;;;;;;61.88;20.42;;;;;;;;;;5043245;28;20822;-79
2023/04/16 03:25:08;;;;;;;35.25;18.17;;;;;;;;;;5059005;28;20172;-79
2023/04/16 03:27:34;;;;;;;28.73;19.13;;;;;;;;;;5059050;28;20173;-80
2023/04/16 03:30:01;;;;;;;33.00;18.70;;;;;;;;;;5076629;28;20632;-79
2023/04/16 03:32:27;;;;;;;31.80;20.88;;;;;;;;;;5059206;28;20263;-79
2023/04/16 03:34:53;;;;;;;28.65;19.05;;;;;;;;;;5041853;28;20235;-79
2023/04/16 03:37:19;;;;;;;36.15;18.95;;;;;;;;;;5042938;28;20173;-80
2023/04/16 03:39:45;;;;;;;40.63;19.77;;;;;;;;;;5058721;28;20189;-80
2023/04/16 03:42:11;;;;;;;30.80;18.45;;;;;;;;;;5042539;28;20181;-80
2023/04/16 03:44:37;;;;;;;35.63;19.75;;;;;;;;;;5059088;28;20181;-80
2023/04/16 03:47:03;;;;;;;31.73;19.52;;;;;;;;;;5059012;28;20173;-80
2023/04/16 03:49:29;;;;;;;37.90;20.48;;;;;;;;;;5058139;28;20244;-80
2023/04/16 03:51:55;;;;;;;36.50;21.70;;;;;;;;;;5042131;28;20199;-79
2023/04/16 03:54:21;;;;;;;40.42;20.77;;;;;;;;;;5042432;28;20213;-79
2023/04/16 03:56:47;;;;;;;40.17;20.42;;;;;;;;;;5042063;28;20187;-83
2023/04/16 03:59:14;;;;;;;40.53;18.83;;;;;;;;;;5041580;28;20545;-80
2023/04/16 04:01:40;;;;;;;30.90;20.92;;;;;;;;;;5058423;28;20177;-80
2023/04/16 04:04:06;;;;;;;33.63;20.35;;;;;;;;;;5041775;28;20181;-80
2023/04/16 04:06:32;;;;;;;35.80;19.55;;;;;;;;;;5042262;28;20187;-79
2023/04/16 04:08:59;;;;;;;36.70;20.10;;;;;;;;;;5041303;28;20178;-79
2023/04/16 04:11:25;;;;;;;37.10;20.90;;;;;;;;;;5042022;28;20184;-79
2023/04/16 04:13:51;;;;;;;33.92;19.17;;;;;;;;;;5058530;28;20203;-79
2023/04/16 04:16:17;;;;;;;30.58;17.75;;;;;;;;;;5058764;28;20181;-79
2023/04/16 04:18:43;;;;;;;32.50;20.67;;;;;;;;;;5042023;28;20280;-79
2023/04/16 04:21:09;;;;;;;32.95;19.67;;;;;;;;;;5058036;28;20221;-79
2023/04/16 04:23:36;;;;;;;30.77;18.70;;;;;;;;;;5058539;28;20657;-79
2023/04/16 04:26:04;;;;;;;40.05;20.67;;;;;;;;;;5075905;28;20173;-79
2023/04/16 04:28:30;;;;;;;31.73;18.48;;;;;;;;;;5057942;28;20173;-79
2023/04/16 04:30:57;;;;;;;40.35;20.95;;;;;;;;;;5057324;28;20173;-79
2023/04/16 04:33:25;;;;;;;40.88;20.02;;;;;;;;;;5058566;28;20219;-79
2023/04/16 04:35:51;;;;;;;37.05;19.48;;;;;;;;;;5058119;28;20644;-79
2023/04/16 04:38:18;;;;;;;34.17;20.98;;;;;;;;;;5058498;28;20185;-79
2023/04/16 04:40:45;;;;;;;43.33;21.55;;;;;;;;;;5041830;28;20189;-79
2023/04/16 04:43:11;;;;;;;34.90;19.20;;;;;;;;;;5075959;28;20173;-79
2023/04/16 04:45:37;;;;;;;36.60;19.90;;;;;;;;;;5058240;28;20173;-80
2023/04/16 04:48:03;;;;;;;34.25;19.13;;;;;;;;;;5041008;28;20247;-79
2023/04/16 04:50:29;;;;;;;36.63;19.60;;;;;;;;;;5075487;28;20221;-79
2023/04/16 04:52:55;;;;;;;41.15;21.17;;;;;;;;;;5057291;28;20169;-80
2023/04/16 04:55:21;;;;;;;35.42;19.52;;;;;;;;;;5040813;28;20195;-79
2023/04/16 04:57:48;;;;;;;40.65;20.23;;;;;;;;;;5041193;28;20177;-79
2023/04/16 05:00:14;;;;;;;45.15;22.00;;;;;;;;;;5057676;28;20199;-79
2023/04/16 05:02:40;;;;;;;51.63;21.35;;;;;;;;;;5057595;28;20203;-79
2023/04/16 05:05:07;;;;;;;38.60;22.05;;;;;;;;;;5041424;28;20184;-79
2023/04/16 05:07:33;;;;;;;35.83;20.77;;;;;;;;;;5041114;28;20227;-79
2023/04/16 05:09:59;;;;;;;40.67;21.38;;;;;;;;;;5040810;28;20633;-79
2023/04/16 05:12:25;;;;;;;31.85;20.42;;;;;;;;;;5041368;28;20195;-79
2023/04/16 05:14:51;;;;;;;42.60;20.88;;;;;;;;;;5040617;28;20219;-81
2023/04/16 05:17:17;;;;;;;35.10;21.00;;;;;;;;;;5075631;28;20255;-79
2023/04/16 05:19:43;;;;;;;37.47;21.98;;;;;;;;;;5041372;28;20177;-79
2023/04/16 05:22:09;;;;;;;45.55;22.85;;;;;;;;;;5040860;28;20176;-79
2023/04/16 05:24:37;;;;;;;37.42;19.02;;;;;;;;;;5041322;28;20212;-79
2023/04/16 05:27:03;;;;;;;41.85;22.60;;;;;;;;;;5075525;28;20181;-79
2023/04/16 05:29:30;;;;;;;40.33;22.08;;;;;;;;;;5040713;28;20191;-79
2023/04/16 05:31:56;;;;;;;44.33;23.30;;;;;;;;;;5041035;28;20181;-79
2023/04/16 05:34:22;;;;;;;37.63;20.83;;;;;;;;;;5057516;28;20255;-79
2023/04/16 05:36:48;;;;;;;42.40;22.48;;;;;;;;;;5057045;28;20176;-80
2023/04/16 05:39:16;;;;;;;38.72;20.75;;;;;;;;;;5057322;28;20181;-80
2023/04/16 05:41:42;;;;;;;46.40;22.48;;;;;;;;;;5057157;28;20181;-80
2023/04/16 05:44:08;;;;;;;52.58;22.90;;;;;;;;;;5040460;28;20191;-80
2023/04/16 05:46:35;;;;;;;41.35;23.42;;;;;;;;;;5040892;28;20189;-79
2023/04/16 05:49:01;;;;;;;54.70;24.27;;;;;;;;;;5040449;28;20744;-80
2023/04/16 05:51:27;;;;;;;44.88;22.65;;;;;;;;;;5057386;28;20537;-80
2023/04/16 05:53:53;;;;;;;40.03;22.63;;;;;;;;;;5040442;28;20217;-80
2023/04/16 05:56:20;;;;;;;51.65;21.77;;;;;;;;;;5040328;28;20208;-80
2023/04/16 05:58:46;;;;;;;54.58;24.85;;;;;;;;;;5041146;28;20177;-80
2023/04/16 06:01:12;;;;;;;47.25;24.23;;;;;;;;;;5039169;28;20736;-80
2023/04/16 06:03:38;;;;;;;35.88;21.67;;;;;;;;;;5053328;28;20200;-79
2023/04/16 06:06:04;;;;;;;53.80;25.75;;;;;;;;;;5052719;28;20235;-80
2023/04/16 06:08:30;;;;;;;43.17;22.05;;;;;;;;;;5057918;28;20170;-80
2023/04/16 06:10:56;;;;;;;43.05;22.95;;;;;;;;;;5056767;28;20212;-81
2023/04/16 06:13:22;;;;;;;46.58;21.75;;;;;;;;;;5058742;28;20213;-80
2023/04/16 06:15:48;;;;;;;50.80;24.00;;;;;;;;;;5057323;28;20284;-80
2023/04/16 06:18:14;;;;;;;41.83;21.40;;;;;;;;;;5058413;28;20431;-90
2023/04/16 06:20:41;;;;;;;39.90;23.30;;;;;;;;;;5058110;28;20204;-90
2023/04/16 06:23:07;;;;;;;44.25;23.17;;;;;;;;;;5056786;28;20185;-90
2023/04/16 06:25:33;;;;;;;45.85;22.25;;;;;;;;;;5073655;28;20246;-79
2023/04/16 06:27:59;;;;;;;41.15;22.75;;;;;;;;;;5061025;28;20595;-79
2023/04/16 06:30:25;;;;;;;43.70;24.60;;;;;;;;;;5080007;28;20181;-79
2023/04/16 06:32:51;;;;;;;43.30;22.70;;;;;;;;;;5062059;28;20600;-79
2023/04/16 06:35:18;;;;;;;45.55;22.42;;;;;;;;;;5078686;28;20176;-79
2023/04/16 06:37:45;;;;;;;39.38;22.95;;;;;;;;;;5079349;28;20184;-79
2023/04/16 06:40:11;;;;;;;37.83;21.67;;;;;;;;;;5060560;28;20177;-78
2023/04/16 06:42:37;;;;;;;48.85;24.52;;;;;;;;;;5079239;28;20653;-79
2023/04/16 06:45:03;;;;;;;42.80;21.88;;;;;;;;;;5060378;28;20181;-79
2023/04/16 06:47:29;;;;;;;39.58;23.92;;;;;;;;;;5060550;28;20173;-80
2023/04/16 06:49:55;;;;;;;44.00;22.90;;;;;;;;;;5043282;28;20241;-79
2023/04/16 06:52:21;;;;;;;40.70;23.52;;;;;;;;;;5060296;28;20184;-79
2023/04/16 06:54:47;;;;;;;43.85;22.65;;;;;;;;;;5043208;28;20208;-79
2023/04/16 06:57:13;;;;;;;35.97;20.05;;;;;;;;;;5060014;28;20532;-79
2023/04/16 06:59:39;;;;;;;48.10;24.63;;;;;;;;;;5043683;28;20184;-78
2023/04/16 07:02:06;;;;;;;57.67;24.50;;;;;;;;;;5060381;28;20184;-78
2023/04/16 07:04:32;;;;;;;44.50;23.98;;;;;;;;;;5060547;28;20180;-78
2023/04/16 07:06:58;;;;;;;42.67;24.10;;;;;;;;;;5060529;28;20625;-82
2023/04/16 07:09:26;;;;;;;42.13;23.60;;;;;;;;;;5060861;28;20204;-78
2023/04/16 07:11:52;;;;;;;41.97;25.23;;;;;;;;;;5060365;28;20586;-78
2023/04/16 07:14:18;;;;;;;46.35;25.45;;;;;;;;;;5077945;28;20334;-78
2023/04/16 07:16:44;;;;;;;42.92;24.98;;;;;;;;;;5043923;28;20271;-78
2023/04/16 07:19:10;;;;;;;43.17;25.45;;;;;;;;;;5042846;28;20192;-78
2023/04/16 07:21:36;;;;;;;40.17;23.00;;;;;;;;;;5059851;28;20184;-78
2023/04/16 07:24:02;;;;;;;49.92;26.65;;;;;;;;;;5079328;28;20191;-79
2023/04/16 07:26:28;;;;;;;48.25;26.83;;;;;;;;;;5080159;28;20172;-78
2023/04/16 07:28:54;;;;;;;44.60;24.52;;;;;;;;;;5098403;28;20540;-78
2023/04/16 07:31:20;;;;;;;42.83;24.45;;;;;;;;;;5097897;28;20256;-79
2023/04/16 07:33:46;;;;;;;51.55;25.83;;;;;;;;;;5097589;28;20211;-79
2023/04/16 07:36:12;;;;;;;48.20;24.70;;;;;;;;;;5058584;28;20658;-79
2023/04/16 07:38:39;;;;;;;51.17;25.90;;;;;;;;;;5070449;28;20191;-78
2023/04/16 07:41:05;;;;;;;54.55;28.05;;;;;;;;;;5059004;28;20284;-79
2023/04/16 07:43:31;;;;;;;62.38;29.70;;;;;;;;;;5042495;28;20184;-79
2023/04/16 07:45:57;;;;;;;55.70;27.73;;;;;;;;;;5077331;28;20168;-78
2023/04/16 07:48:23;;;;;;;51.72;26.17;;;;;;;;;;5059359;28;20180;-77
2023/04/16 07:50:49;;;;;;;43.80;25.63;;;;;;;;;;5063000;28;20231;-77
2023/04/16 07:53:15;;;;;;;47.70;25.75;;;;;;;;;;5079403;28;20219;-78
2023/04/16 07:55:41;;;;;;;44.65;26.65;;;;;;;;;;5079769;28;20187;-78
2023/04/16 07:58:08;;;;;;;45.03;24.52;;;;;;;;;;5062344;28;20172;-79
2023/04/16 08:00:34;;;;;;;47.25;27.15;;;;;;;;;;5062315;28;20207;-79
2023/04/16 08:03:00;;;;;;;48.20;25.52;;;;;;;;;;5078781;28;20173;-79
2023/04/16 08:05:26;;;;;;;54.95;24.63;;;;;;;;;;5061856;28;20614;-80
2023/04/16 08:07:52;;;;;;;43.05;24.42;;;;;;;;;;5096658;28;20164;-80
2023/04/16 08:10:18;;;;;;;45.88;22.10;;;;;;;;;;5078341;28;20184;-79
2023/04/16 08:12:44;;;;;;;49.83;24.30;;;;;;;;;;5078433;28;20206;-79
2023/04/16 08:15:11;;;;;;;48.08;24.50;;;;;;;;;;5077689;28;20214;-80
2023/04/16 08:17:37;;;;;;;42.90;23.35;;;;;;;;;;5077837;28;20172;-79
2023/04/16 08:20:03;;;;;;;37.63;21.75;;;;;;;;;;5061395;28;20278;-80
2023/04/16 08:22:29;;;;;;;41.30;24.45;;;;;;;;;;5061953;28;20196;-79
2023/04/16 08:24:56;;;;;;;47.55;25.08;;;;;;;;;;5078271;28;20231;-80
2023/04/16 08:27:22;;;;;;;48.42;26.50;;;;;;;;;;5060936;28;20183;-80
2023/04/16 08:29:48;;;;;;;50.30;25.73;;;;;;;;;;5077161;28;20192;-80
2023/04/16 08:32:14;;;;;;;59.03;29.55;;;;;;;;;;5077775;28;20525;-78
2023/04/16 08:34:41;;;;;;;71.78;35.55;;;;;;;;;;5095919;28;20196;-80
2023/04/16 08:37:07;;;;;;;77.60;40.15;;;;;;;;;;5077726;28;20526;-80
2023/04/16 08:39:34;;;;;;;92.00;41.70;;;;;;;;;;5060839;28;20172;-80
2023/04/16 08:42:02;;;;;;;76.20;37.00;;;;;;;;;;5060365;28;20184;-80
2023/04/16 08:44:31;;;;;;;74.03;36.85;;;;;;;;;;5077620;28;20212;-79
2023/04/16 08:46:57;;;;;;;66.38;35.03;;;;;;;;;;5094893;28;20294;-80
2023/04/16 08:49:24;;;;;;;71.57;38.53;;;;;;;;;;5060857;28;20231;-80
2023/04/16 08:51:51;;;;;;;75.47;36.75;;;;;;;;;;5077873;28;20169;-80
2023/04/16 08:54:30;;;;;;;60.95;34.17;;;;;;;;;;5077702;28;20671;-80
2023/04/16 08:56:58;;;;;;;63.15;33.92;;;;;;;;;;5096109;28;20176;-80
2023/04/16 08:59:25;;;;;;;57.35;32.83;;;;;;;;;;5095529;28;20171;-80
2023/04/16 09:01:51;;;;;;;61.70;32.53;;;;;;;;;;5060397;28;20172;-80
2023/04/16 09:04:18;;;;;;;68.45;33.60;;;;;;;;;;5077370;28;20184;-80
2023/04/16 09:06:45;;;;;;;55.08;34.38;;;;;;;;;;5095724;28;20175;-80
2023/04/16 09:09:12;;;;;;;62.78;35.55;;;;;;;;;;5060513;28;20182;-80
2023/04/16 09:11:38;;;;;;;65.70;35.72;;;;;;;;;;5077109;28;20549;-80
2023/04/16 09:14:10;;;;;;;74.38;39.75;;;;;;;;;;5061186;28;20204;-80
2023/04/16 09:16:36;;;;;;;70.22;36.50;;;;;;;;;;5077319;28;20175;-80
2023/04/16 09:19:02;;;;;;;56.72;34.65;;;;;;;;;;5077314;28;20245;-80
2023/04/16 09:21:28;;;;;;;65.40;35.55;;;;;;;;;;5060804;28;20180;-79
2023/04/16 09:23:55;;;;;;;67.03;40.03;;;;;;;;;;5077529;28;20195;-80
2023/04/16 09:26:21;;;;;;;69.95;42.65;;;;;;;;;;5077222;28;20183;-80
2023/04/16 09:28:50;;;;;;;71.07;40.72;;;;;;;;;;5060562;28;20180;-80
2023/04/16 09:31:17;;;;;;;70.45;40.40;;;;;;;;;;5048248;28;20213;-80
2023/04/16 09:33:44;;;;;;;70.20;39.83;;;;;;;;;;5036960;28;20196;-80
2023/04/16 09:36:10;;;;;;;57.58;35.95;;;;;;;;;;5041290;28;20177;-78
2023/04/16 09:38:50;;;;;;;59.47;34.20;;;;;;;;;;5057123;28;20173;-79
2023/04/16 09:41:16;;;;;;;54.25;33.00;;;;;;;;;;5057456;28;20187;-80
2023/04/16 09:44:03;;;;;;;52.45;33.13;;;;;;;;;;5061534;28;20583;-80
2023/04/16 09:46:30;;;;;;;57.17;35.08;;;;;;;;;;5078679;28;20165;-81
2023/04/16 09:48:57;;;;;;;52.55;33.22;;;;;;;;;;5057711;28;20560;-80
2023/04/16 09:51:25;;;;;;;45.08;31.65;;;;;;;;;;5060642;28;20173;-80
2023/04/16 09:53:53;;;;;;;56.20;34.17;;;;;;;;;;5043952;28;20207;-80
2023/04/16 09:56:24;;;;;;;53.00;33.33;;;;;;;;;;5060722;28;20177;-80
2023/04/16 09:58:51;;;;;;;59.10;34.87;;;;;;;;;;5060992;28;20415;-80
2023/04/16 10:01:17;;;;;;;51.13;35.30;;;;;;;;;;5060486;28;20741;-80
2023/04/16 10:03:44;;;;;;;52.90;34.60;;;;;;;;;;5060539;28;20390;-79
2023/04/16 10:06:15;;;;;;;53.80;35.93;;;;;;;;;;5043692;28;20418;-81
2023/04/16 10:08:47;;;;;;;50.95;34.95;;;;;;;;;;5058809;28;20766;-81
2023/04/16 10:11:13;;;;;;;51.20;35.03;;;;;;;;;;5060087;28;20187;-81
2023/04/16 10:13:39;;;;;;;52.00;30.47;;;;;;;;;;5059946;28;20470;-79
2023/04/16 10:16:06;;;;;;;54.80;33.63;;;;;;;;;;5043906;28;20418;-80
2023/04/16 10:18:33;;;;;;;47.13;33.60;;;;;;;;;;5043607;28;20415;-79
2023/04/16 10:21:00;;;;;;;55.85;33.78;;;;;;;;;;5060762;28;20169;-80
2023/04/16 10:23:26;;;;;;;52.17;31.70;;;;;;;;;;5060328;28;20215;-79
2023/04/16 10:25:54;;;;;;;43.53;30.93;;;;;;;;;;5060442;28;20382;-79
2023/04/16 10:28:20;;;;;;;48.47;32.80;;;;;;;;;;5060458;28;20411;-79
2023/04/16 10:30:51;;;;;;;43.23;31.30;;;;;;;;;;5059580;28;20386;-79
2023/04/16 10:33:37;;;;;;;43.00;30.17;;;;;;;;;;5059727;28;20557;-80
2023/04/16 10:36:08;;;;;;;42.23;25.93;;;;;;;;;;5059788;28;20425;-81
2023/04/16 10:38:34;;;;;;;38.67;23.90;;;;;;;;;;5077637;28;20403;-80
2023/04/16 10:41:05;;;;;;;43.90;26.43;;;;;;;;;;5059874;28;20402;-78
2023/04/16 10:43:32;;;;;;;34.53;24.33;;;;;;;;;;5059688;28;20780;-79
2023/04/16 10:46:16;;;;;;;45.20;26.93;;;;;;;;;;5059603;28;20417;-78
2023/04/16 10:48:42;;;;;;;39.83;24.90;;;;;;;;;;5059342;28;20423;-81
2023/04/16 10:51:22;;;;;;;36.10;25.30;;;;;;;;;;5059868;28;20423;-81
2023/04/16 10:53:48;;;;;;;38.00;25.60;;;;;;;;;;5057978;28;20433;-80
2023/04/16 10:56:15;;;;;;;40.40;27.20;;;;;;;;;;5059282;28;20415;-81
2023/04/16 10:58:41;;;;;;;34.13;25.60;;;;;;;;;;5059648;28;20545;-81
2023/04/16 11:01:12;;;;;;;36.73;25.63;;;;;;;;;;5059297;28;20407;-80
2023/04/16 11:03:41;;;;;;;34.85;26.80;;;;;;;;;;5059485;28;20408;-81
2023/04/16 11:06:17;;;;;;;36.43;24.97;;;;;;;;;;5059173;28;20200;-81
2023/04/16 11:08:44;;;;;;;31.97;23.00;;;;;;;;;;5077056;28;20452;-81
2023/04/16 11:11:11;;;;;;;36.60;25.87;;;;;;;;;;5077110;28;20400;-81
2023/04/16 11:13:37;;;;;;;35.13;23.33;;;;;;;;;;5058618;28;20952;-80
2023/04/16 11:16:04;;;;;;;32.37;23.67;;;;;;;;;;5058914;28;20510;-80
2023/04/16 11:18:30;;;;;;;31.20;24.17;;;;;;;;;;5058242;28;20446;-81
2023/04/16 11:20:56;;;;;;;33.03;24.57;;;;;;;;;;5058821;28;20419;-81
2023/04/16 11:23:22;;;;;;;31.07;23.23;;;;;;;;;;5040835;28;20443;-81
2023/04/16 11:25:54;;;;;;;28.67;23.00;;;;;;;;;;5058019;28;20956;-80
2023/04/16 11:28:20;;;;;;;35.90;26.43;;;;;;;;;;5042624;28;20845;-81
2023/04/16 11:30:46;;;;;;;34.27;24.30;;;;;;;;;;5075753;28;20481;-81
2023/04/16 11:33:12;;;;;;;33.67;26.07;;;;;;;;;;5038517;28;20424;-81
2023/04/16 11:35:40;;;;;;;30.20;24.77;;;;;;;;;;5038815;28;20445;-80
2023/04/16 11:38:06;;;;;;;29.83;24.77;;;;;;;;;;5038196;28;20405;-81
2023/04/16 11:40:32;;;;;;;26.10;22.30;;;;;;;;;;5057012;28;20874;-81
2023/04/16 11:43:12;;;;;;;29.50;22.77;;;;;;;;;;5026504;28;20409;-81
2023/04/16 11:45:38;;;;;;;29.43;23.30;;;;;;;;;;5038174;28;20387;-81
2023/04/16 11:48:04;;;;;;;32.60;24.87;;;;;;;;;;5038088;28;20419;-81
2023/04/16 11:50:31;;;;;;;31.60;24.70;;;;;;;;;;5037885;28;20439;-81
2023/04/16 11:53:02;;;;;;;37.90;25.80;;;;;;;;;;5056973;28;20434;-81
2023/04/16 11:55:28;;;;;;;35.80;27.23;;;;;;;;;;5052009;28;20772;-81
2023/04/16 11:57:54;;;;;;;28.53;23.80;;;;;;;;;;5039895;28;20453;-81
2023/04/16 12:00:21;;;;;;;28.70;23.83;;;;;;;;;;5074995;28;20510;-81
2023/04/16 12:02:51;;;;;;;28.90;24.03;;;;;;;;;;5057696;28;20411;-80
2023/04/16 12:05:33;;;;;;;31.30;24.03;;;;;;;;;;5057070;28;20412;-81
2023/04/16 12:08:00;;;;;;;29.83;24.07;;;;;;;;;;5057851;28;20770;-80
2023/04/16 12:10:26;;;;;;;27.30;22.67;;;;;;;;;;5057441;28;20454;-80
2023/04/16 12:12:53;;;;;;;28.73;22.00;;;;;;;;;;5052586;28;20424;-81
2023/04/16 12:15:19;;;;;;;25.50;22.37;;;;;;;;;;5022234;28;20441;-82
2023/04/16 12:17:45;;;;;;;25.20;21.10;;;;;;;;;;5057484;28;20394;-81
2023/04/16 12:20:12;;;;;;;27.13;22.00;;;;;;;;;;5057074;28;20398;-82
2023/04/16 12:22:40;;;;;;;29.03;21.43;;;;;;;;;;5037833;28;20435;-81
2023/04/16 12:25:07;;;;;;;26.50;20.47;;;;;;;;;;5057458;28;20827;-81
2023/04/16 12:27:46;;;;;;;24.40;19.40;;;;;;;;;;5045653;28;20431;-81
2023/04/16 12:30:13;;;;;;;19.30;17.30;;;;;;;;;;5072530;28;20385;-81
2023/04/16 12:32:40;;;;;;;21.07;18.73;;;;;;;;;;5051080;28;20419;-81
2023/04/16 12:35:08;;;;;;;20.17;17.73;;;;;;;;;;5046962;28;20547;-81
2023/04/16 12:37:34;;;;;;;19.50;17.00;;;;;;;;;;5038003;28;20451;-80
2023/04/16 12:40:01;;;;;;;22.30;18.20;;;;;;;;;;5051251;28;20427;-80
2023/04/16 12:42:32;;;;;;;22.00;19.50;;;;;;;;;;5074782;28;20512;-81
2023/04/16 12:44:58;;;;;;;20.60;18.40;;;;;;;;;;5028026;28;20432;-81
2023/04/16 12:47:24;;;;;;;22.07;18.67;;;;;;;;;;5036802;28;20420;-82
2023/04/16 12:49:50;;;;;;;23.70;19.47;;;;;;;;;;5037123;28;20438;-81
2023/04/16 12:52:16;;;;;;;26.07;21.30;;;;;;;;;;5036905;28;20394;-81
2023/04/16 12:54:42;;;;;;;27.20;20.70;;;;;;;;;;5036475;28;20445;-81
2023/04/16 12:57:08;;;;;;;24.30;20.03;;;;;;;;;;5054838;28;20745;-81
2023/04/16 12:59:34;;;;;;;25.90;20.50;;;;;;;;;;5071113;28;20934;-81
2023/04/16 13:02:01;;;;;;;25.03;21.37;;;;;;;;;;5036737;28;20423;-81
2023/04/16 13:04:27;;;;;;;22.37;18.27;;;;;;;;;;5051458;28;20423;-81
2023/04/16 13:06:53;;;;;;;22.70;17.20;;;;;;;;;;5040560;28;20407;-81
2023/04/16 13:09:19;;;;;;;22.97;17.67;;;;;;;;;;5039316;28;20422;-81
2023/04/16 13:11:45;;;;;;;21.30;16.50;;;;;;;;;;5049437;28;20815;-81
2023/04/16 13:14:11;;;;;;;19.80;15.90;;;;;;;;;;5023663;28;20463;-80
2023/04/16 13:16:37;;;;;;;21.17;18.20;;;;;;;;;;5058886;28;20455;-80
2023/04/16 13:19:04;;;;;;;17.23;15.50;;;;;;;;;;5037589;28;20423;-80
2023/04/16 13:21:30;;;;;;;21.23;16.40;;;;;;;;;;5052830;28;20391;-81
2023/04/16 13:23:56;;;;;;;20.23;17.87;;;;;;;;;;5053095;28;20401;-80
2023/04/16 13:26:24;;;;;;;23.70;17.43;;;;;;;;;;5052522;28;20408;-80
2023/04/16 13:28:50;;;;;;;20.90;17.70;;;;;;;;;;5052875;28;20408;-80
2023/04/16 13:31:19;;;;;;;20.93;18.33;;;;;;;;;;5036234;28;20404;-80
2023/04/16 13:33:45;;;;;;;24.13;19.50;;;;;;;;;;5053942;28;20435;-81
2023/04/16 13:36:11;;;;;;;23.17;19.20;;;;;;;;;;5036351;28;20461;-80
2023/04/16 13:38:39;;;;;;;22.33;18.93;;;;;;;;;;5035789;28;20416;-80
2023/04/16 13:41:05;;;;;;;22.50;18.27;;;;;;;;;;5041040;28;20501;-80
2023/04/16 13:43:31;;;;;;;24.40;18.53;;;;;;;;;;5028809;28;20418;-80
2023/04/16 13:45:59;;;;;;;22.30;18.73;;;;;;;;;;5033345;28;20397;-81
2023/04/16 13:48:25;;;;;;;22.93;17.87;;;;;;;;;;5039350;28;20424;-81
2023/04/16 13:50:51;;;;;;;20.33;18.23;;;;;;;;;;5073624;28;20962;-81
2023/04/16 13:53:17;;;;;;;20.80;18.70;;;;;;;;;;5020419;28;20423;-81
2023/04/16 13:55:44;;;;;;;20.23;18.00;;;;;;;;;;5019467;28;20420;-80
2023/04/16 13:58:10;;;;;;;22.80;18.93;;;;;;;;;;5053873;28;20484;-81
2023/04/16 14:00:36;;;;;;;20.47;18.27;;;;;;;;;;5019196;28;20397;-80
2023/04/16 14:03:04;;;;;;;21.00;18.80;;;;;;;;;;5038603;28;20426;-82
2023/04/16 14:05:30;;;;;;;21.73;18.27;;;;;;;;;;5052318;28;20476;-81
2023/04/16 14:07:56;;;;;;;21.93;18.23;;;;;;;;;;5049628;28;20409;-80
2023/04/16 14:10:22;;;;;;;21.10;18.43;;;;;;;;;;5047438;28;20791;-81
2023/04/16 14:12:48;;;;;;;20.67;18.43;;;;;;;;;;5055756;28;20426;-80